Time;durP1;ratioP1;P1;durP2;ratioP2;P2;SDS_P1;SDS_P2;PMS_P1;PMS_P2;Temp;Humidity;BMP_temperature;BMP_pressure;BME280_temperature;BME280_humidity;BME280_pressure;Samples;Min_cycle;Max_cycle;Signal;HPM_P1;HPM_P2
2022/11/23 00:01:18;;;;;;;33.28;4.93;;;;;;;;;;5013175;28;20022;-56
2022/11/23 00:03:46;;;;;;;27.60;4.72;;;;;;;;;;5004754;28;20042;-56
2022/11/23 00:06:13;;;;;;;40.38;6.13;;;;;;;;;;5004574;28;20033;-53
2022/11/23 00:08:40;;;;;;;43.92;5.97;;;;;;;;;;5003719;28;20077;-55
2022/11/23 00:11:07;;;;;;;33.00;5.28;;;;;;;;;;5004596;28;20030;-57
2022/11/23 00:13:34;;;;;;;47.55;6.88;;;;;;;;;;5003579;28;20026;-56
2022/11/23 00:16:08;;;;;;;81.78;9.60;;;;;;;;;;5015584;28;20060;-58
2022/11/23 00:18:35;;;;;;;65.10;7.53;;;;;;;;;;5010749;28;20434;-58
2022/11/23 00:21:09;;;;;;;54.08;7.00;;;;;;;;;;5014621;28;20029;-53
2022/11/23 00:23:36;;;;;;;66.68;7.45;;;;;;;;;;5018597;28;20064;-58
2022/11/23 00:26:04;;;;;;;72.93;8.13;;;;;;;;;;5012934;28;20034;-57
2022/11/23 00:28:32;;;;;;;83.05;8.90;;;;;;;;;;5014685;28;20052;-59
2022/11/23 00:31:01;;;;;;;58.08;8.60;;;;;;;;;;5014789;28;20080;-58
2022/11/23 00:33:31;;;;;;;73.57;9.73;;;;;;;;;;5014232;28;20065;-52
2022/11/23 00:36:05;;;;;;;70.75;8.68;;;;;;;;;;5014903;28;20033;-53
2022/11/23 00:38:34;;;;;;;61.38;10.25;;;;;;;;;;5013525;28;20479;-54
2022/11/23 00:41:07;;;;;;;63.13;9.00;;;;;;;;;;5012663;28;20109;-52
2022/11/23 00:43:37;;;;;;;57.85;8.77;;;;;;;;;;5014530;28;20038;-58
2022/11/23 00:46:07;;;;;;;60.92;8.52;;;;;;;;;;5014011;28;20053;-57
2022/11/23 00:48:37;;;;;;;57.72;8.90;;;;;;;;;;5014754;28;20037;-56
2022/11/23 00:51:07;;;;;;;53.50;9.13;;;;;;;;;;5015130;28;20034;-58
2022/11/23 00:53:37;;;;;;;45.03;8.32;;;;;;;;;;5014845;28;20820;-54
2022/11/23 00:56:10;;;;;;;66.60;9.50;;;;;;;;;;5014377;28;20132;-58
2022/11/23 00:58:42;;;;;;;65.28;10.60;;;;;;;;;;5011984;28;20036;-55
2022/11/23 01:01:17;;;;;;;76.65;12.02;;;;;;;;;;5014643;28;20040;-57
2022/11/23 01:03:51;;;;;;;65.70;11.05;;;;;;;;;;5014869;28;20026;-58
2022/11/23 01:06:23;;;;;;;54.22;10.68;;;;;;;;;;5017194;28;20149;-58
2022/11/23 01:08:54;;;;;;;58.97;11.83;;;;;;;;;;5014638;28;20818;-58
2022/11/23 01:11:22;;;;;;;65.10;11.52;;;;;;;;;;4999792;28;20041;-56
2022/11/23 01:13:50;;;;;;;58.95;11.32;;;;;;;;;;4994920;28;20026;-55
2022/11/23 01:16:19;;;;;;;56.17;11.48;;;;;;;;;;5009948;28;20574;-57
2022/11/23 01:18:45;;;;;;;62.10;10.15;;;;;;;;;;5014483;28;20038;-59
2022/11/23 01:21:13;;;;;;;62.45;10.68;;;;;;;;;;5014166;28;20538;-55
2022/11/23 01:23:40;;;;;;;43.75;9.68;;;;;;;;;;5014075;28;20484;-58
2022/11/23 01:26:10;;;;;;;47.05;9.65;;;;;;;;;;4997240;28;20481;-58
2022/11/23 01:28:38;;;;;;;48.08;8.80;;;;;;;;;;5007940;28;20053;-58
2022/11/23 01:31:13;;;;;;;43.05;8.98;;;;;;;;;;5013651;28;20034;-58
2022/11/23 01:33:40;;;;;;;31.90;7.35;;;;;;;;;;5011905;28;20030;-58
2022/11/23 01:36:11;;;;;;;40.92;7.63;;;;;;;;;;5003688;28;20046;-56
2022/11/23 01:38:39;;;;;;;38.60;7.03;;;;;;;;;;4997184;28;20480;-57
2022/11/23 01:41:06;;;;;;;34.55;6.50;;;;;;;;;;4994278;28;20504;-58
2022/11/23 01:43:33;;;;;;;38.90;6.47;;;;;;;;;;4994261;28;20026;-54
2022/11/23 01:46:01;;;;;;;38.63;5.80;;;;;;;;;;4994547;28;20485;-56
2022/11/23 01:48:48;;;;;;;37.05;6.30;;;;;;;;;;4994046;28;20080;-59
2022/11/23 01:51:16;;;;;;;54.70;6.28;;;;;;;;;;4994132;28;20038;-55
2022/11/23 01:53:44;;;;;;;30.63;5.93;;;;;;;;;;4994375;28;20498;-52
2022/11/23 01:56:15;;;;;;;26.58;5.07;;;;;;;;;;4992417;28;20068;-56
2022/11/23 01:58:44;;;;;;;39.63;5.68;;;;;;;;;;4994039;28;20468;-54
2022/11/23 02:01:12;;;;;;;27.50;5.13;;;;;;;;;;4994013;28;20031;-57
2022/11/23 02:03:40;;;;;;;30.30;5.88;;;;;;;;;;4993547;28;20034;-55
2022/11/23 02:06:11;;;;;;;22.77;4.25;;;;;;;;;;4994486;28;20671;-52
2022/11/23 02:08:38;;;;;;;27.80;4.88;;;;;;;;;;4993993;28;20065;-50
2022/11/23 02:11:05;;;;;;;18.90;4.07;;;;;;;;;;4994246;28;20026;-52
2022/11/23 02:13:32;;;;;;;23.30;4.28;;;;;;;;;;4993700;28;20125;-52
2022/11/23 02:15:59;;;;;;;22.48;3.65;;;;;;;;;;4994032;28;20495;-51
2022/11/23 02:18:28;;;;;;;21.88;3.25;;;;;;;;;;5010010;28;20026;-50
2022/11/23 02:20:57;;;;;;;19.77;2.55;;;;;;;;;;5010280;28;20100;-54
2022/11/23 02:23:30;;;;;;;13.75;2.08;;;;;;;;;;5012937;28;20030;-55
2022/11/23 02:26:29;;;;;;;16.75;2.22;;;;;;;;;;5011271;28;20030;-52
2022/11/23 02:29:00;;;;;;;13.32;2.17;;;;;;;;;;5010897;28;20038;-51
2022/11/23 02:31:27;;;;;;;17.90;2.05;;;;;;;;;;5012971;28;20025;-48
2022/11/23 02:33:54;;;;;;;22.00;2.72;;;;;;;;;;5012795;28;20080;-50
2022/11/23 02:36:28;;;;;;;9.32;1.90;;;;;;;;;;5008216;28;20030;-55
2022/11/23 02:38:58;;;;;;;13.60;2.45;;;;;;;;;;5011931;28;20030;-53
2022/11/23 02:41:25;;;;;;;14.15;2.03;;;;;;;;;;5013035;28;20022;-50
2022/11/23 02:43:54;;;;;;;13.75;2.05;;;;;;;;;;5013275;28;20022;-50
2022/11/23 02:46:21;;;;;;;12.45;1.70;;;;;;;;;;5013341;28;20033;-51
2022/11/23 02:48:48;;;;;;;10.90;2.03;;;;;;;;;;5013261;28;20064;-48
2022/11/23 02:51:15;;;;;;;10.35;1.30;;;;;;;;;;5013257;28;20029;-49
2022/11/23 02:53:42;;;;;;;9.70;1.60;;;;;;;;;;5013123;28;20045;-52
2022/11/23 02:56:09;;;;;;;5.95;1.30;;;;;;;;;;5013097;28;20022;-49
2022/11/23 02:58:35;;;;;;;8.93;1.55;;;;;;;;;;5013167;28;20033;-50
2022/11/23 03:01:02;;;;;;;8.40;1.38;;;;;;;;;;5013056;28;20057;-48
2022/11/23 03:03:29;;;;;;;8.57;1.50;;;;;;;;;;5012964;28;20076;-52
2022/11/23 03:05:56;;;;;;;5.75;1.30;;;;;;;;;;5013053;28;20034;-47
2022/11/23 03:08:23;;;;;;;11.45;1.58;;;;;;;;;;5012152;28;20530;-48
2022/11/23 03:10:50;;;;;;;4.80;1.10;;;;;;;;;;5013262;28;20392;-49
2022/11/23 03:13:17;;;;;;;10.30;1.35;;;;;;;;;;5012899;28;20075;-49
2022/11/23 03:15:44;;;;;;;8.40;1.40;;;;;;;;;;5011713;28;20373;-53
2022/11/23 03:18:11;;;;;;;6.50;1.17;;;;;;;;;;5012825;28;20030;-49
2022/11/23 03:20:38;;;;;;;8.30;1.25;;;;;;;;;;5012941;28;20026;-49
2022/11/23 03:23:05;;;;;;;5.97;1.10;;;;;;;;;;5013172;28;20041;-52
2022/11/23 03:25:32;;;;;;;8.02;1.30;;;;;;;;;;5012669;28;20108;-55
2022/11/23 03:27:59;;;;;;;8.73;1.17;;;;;;;;;;5013125;28;20423;-49
2022/11/23 03:30:26;;;;;;;6.25;1.30;;;;;;;;;;5011550;28;20038;-52
2022/11/23 03:32:53;;;;;;;6.50;1.40;;;;;;;;;;5012724;28;20037;-55
2022/11/23 03:35:20;;;;;;;6.90;1.80;;;;;;;;;;5012696;28;20030;-55
2022/11/23 03:37:47;;;;;;;9.73;1.63;;;;;;;;;;5012704;28;20036;-53
2022/11/23 03:40:14;;;;;;;6.38;1.33;;;;;;;;;;5012773;28;20498;-54
2022/11/23 03:42:41;;;;;;;7.38;1.40;;;;;;;;;;5012764;28;20034;-56
2022/11/23 03:45:09;;;;;;;4.60;1.25;;;;;;;;;;5012647;28;20061;-57
2022/11/23 03:47:36;;;;;;;7.63;1.80;;;;;;;;;;5012650;28;20038;-54
2022/11/23 03:50:03;;;;;;;6.10;1.75;;;;;;;;;;5012707;28;20045;-54
2022/11/23 03:52:30;;;;;;;8.68;1.48;;;;;;;;;;5012629;28;20022;-54
2022/11/23 03:54:57;;;;;;;12.77;1.60;;;;;;;;;;5012568;28;20061;-52
2022/11/23 03:57:24;;;;;;;7.57;1.60;;;;;;;;;;5012518;28;20029;-56
2022/11/23 03:59:51;;;;;;;7.80;1.38;;;;;;;;;;5012608;28;20038;-55
2022/11/23 04:02:18;;;;;;;9.68;1.27;;;;;;;;;;5012514;28;20030;-51
2022/11/23 04:04:45;;;;;;;4.40;1.27;;;;;;;;;;5012506;28;20448;-52
2022/11/23 04:07:12;;;;;;;3.33;0.90;;;;;;;;;;5012440;28;20484;-54
2022/11/23 04:09:39;;;;;;;4.55;1.15;;;;;;;;;;5012388;28;20046;-55
2022/11/23 04:12:06;;;;;;;4.25;1.10;;;;;;;;;;5012501;28;20391;-56
2022/11/23 04:14:33;;;;;;;8.38;1.17;;;;;;;;;;5012351;28;20541;-57
2022/11/23 04:17:03;;;;;;;4.68;1.15;;;;;;;;;;5012370;28;20030;-54
2022/11/23 04:19:30;;;;;;;5.55;1.30;;;;;;;;;;5014286;28;20045;-54
2022/11/23 04:21:57;;;;;;;5.75;1.15;;;;;;;;;;5015973;28;20472;-53
2022/11/23 04:24:24;;;;;;;9.43;1.30;;;;;;;;;;5015831;28;20026;-55
2022/11/23 04:26:51;;;;;;;8.13;1.20;;;;;;;;;;5015954;28;20036;-56
2022/11/23 04:29:18;;;;;;;3.15;1.02;;;;;;;;;;5015762;28;20499;-54
2022/11/23 04:31:45;;;;;;;2.53;0.80;;;;;;;;;;5015861;28;20034;-54
2022/11/23 04:34:12;;;;;;;3.15;1.08;;;;;;;;;;5015620;28;20080;-56
2022/11/23 04:36:39;;;;;;;2.83;0.88;;;;;;;;;;5015627;28;20037;-52
2022/11/23 04:39:06;;;;;;;3.97;0.90;;;;;;;;;;5014306;28;20117;-53
2022/11/23 04:41:33;;;;;;;3.33;0.80;;;;;;;;;;5015566;28;20392;-55
2022/11/23 04:44:00;;;;;;;4.20;1.08;;;;;;;;;;5015478;28;20061;-57
2022/11/23 04:46:27;;;;;;;4.53;1.05;;;;;;;;;;5015459;28;20105;-52
2022/11/23 04:48:54;;;;;;;4.22;1.10;;;;;;;;;;5015427;28;20026;-55
2022/11/23 04:51:21;;;;;;;5.18;0.98;;;;;;;;;;5015461;28;20108;-56
2022/11/23 04:53:48;;;;;;;7.43;1.10;;;;;;;;;;5015283;28;20026;-52
2022/11/23 04:56:15;;;;;;;2.78;0.70;;;;;;;;;;5015216;28;20400;-54
2022/11/23 04:58:42;;;;;;;8.02;1.10;;;;;;;;;;5015301;28;20488;-53
2022/11/23 05:01:09;;;;;;;8.30;0.85;;;;;;;;;;5015248;28;20030;-55
2022/11/23 05:03:36;;;;;;;4.97;0.85;;;;;;;;;;5015056;28;20042;-55
2022/11/23 05:06:04;;;;;;;3.55;0.70;;;;;;;;;;5015107;28;20030;-55
2022/11/23 05:08:31;;;;;;;4.88;0.95;;;;;;;;;;5014858;28;20053;-54
2022/11/23 05:10:58;;;;;;;4.20;1.00;;;;;;;;;;5015083;28;20480;-51
2022/11/23 05:13:25;;;;;;;3.35;0.65;;;;;;;;;;5014878;28;20492;-54
2022/11/23 05:15:52;;;;;;;5.05;1.02;;;;;;;;;;5015004;28;20097;-55
2022/11/23 05:18:19;;;;;;;2.63;0.70;;;;;;;;;;5014790;28;20038;-52
2022/11/23 05:20:46;;;;;;;5.60;1.00;;;;;;;;;;5015130;28;20365;-54
2022/11/23 05:23:13;;;;;;;5.90;0.65;;;;;;;;;;5014741;28;20038;-56
2022/11/23 05:25:40;;;;;;;5.70;0.80;;;;;;;;;;5014735;28;20392;-55
2022/11/23 05:28:07;;;;;;;4.07;0.90;;;;;;;;;;5014665;28;20084;-56
2022/11/23 05:30:34;;;;;;;6.47;0.80;;;;;;;;;;5013882;28;20105;-56
2022/11/23 05:33:02;;;;;;;6.32;1.00;;;;;;;;;;5014506;28;20026;-53
2022/11/23 05:35:29;;;;;;;2.70;0.82;;;;;;;;;;5014548;28;20030;-57
2022/11/23 05:37:56;;;;;;;7.93;1.00;;;;;;;;;;5014442;28;20053;-53
2022/11/23 05:40:23;;;;;;;5.45;1.00;;;;;;;;;;5014486;28;20105;-56
2022/11/23 05:42:54;;;;;;;6.85;1.02;;;;;;;;;;5014357;28;20440;-57
2022/11/23 05:45:21;;;;;;;2.63;0.82;;;;;;;;;;5014274;28;20034;-51
2022/11/23 05:47:52;;;;;;;7.00;0.82;;;;;;;;;;5014344;28;20029;-57
2022/11/23 05:50:19;;;;;;;6.47;0.77;;;;;;;;;;5014230;28;20541;-54
2022/11/23 05:52:46;;;;;;;2.72;0.60;;;;;;;;;;5014372;28;20077;-55
2022/11/23 05:55:13;;;;;;;2.47;0.90;;;;;;;;;;5014047;28;20049;-55
2022/11/23 05:57:40;;;;;;;3.05;0.77;;;;;;;;;;5014130;28;20026;-57
2022/11/23 06:00:09;;;;;;;2.33;0.70;;;;;;;;;;5014148;28;20034;-57
2022/11/23 06:02:36;;;;;;;2.70;0.75;;;;;;;;;;5026830;28;20502;-53
2022/11/23 06:05:04;;;;;;;5.53;0.88;;;;;;;;;;5033746;28;20017;-54
2022/11/23 06:07:34;;;;;;;2.75;0.85;;;;;;;;;;5033021;28;20066;-55
2022/11/23 06:10:01;;;;;;;7.55;0.82;;;;;;;;;;5033698;28;20052;-52
2022/11/23 06:12:29;;;;;;;2.42;0.77;;;;;;;;;;5033755;28;20029;-55
2022/11/23 06:14:56;;;;;;;5.13;0.90;;;;;;;;;;5033485;28;20076;-53
2022/11/23 06:17:23;;;;;;;1.00;0.60;;;;;;;;;;5033439;28;20048;-53
2022/11/23 06:19:50;;;;;;;4.35;1.00;;;;;;;;;;5032209;28;20029;-55
2022/11/23 06:22:17;;;;;;;4.57;0.50;;;;;;;;;;5033400;28;20099;-55
2022/11/23 06:24:44;;;;;;;4.53;0.70;;;;;;;;;;5033366;28;20028;-54
2022/11/23 06:27:15;;;;;;;4.03;0.88;;;;;;;;;;5033340;28;20072;-54
2022/11/23 06:29:42;;;;;;;6.82;0.90;;;;;;;;;;5033265;28;20034;-49
2022/11/23 06:32:09;;;;;;;4.45;0.75;;;;;;;;;;5033225;28;20025;-50
2022/11/23 06:34:36;;;;;;;4.85;0.95;;;;;;;;;;5033094;28;20025;-52
2022/11/23 06:37:03;;;;;;;2.53;0.68;;;;;;;;;;5033245;28;20054;-50
2022/11/23 06:39:30;;;;;;;3.58;0.80;;;;;;;;;;5033211;28;20017;-53
2022/11/23 06:41:57;;;;;;;4.20;0.90;;;;;;;;;;5032393;28;20051;-52
2022/11/23 06:44:24;;;;;;;4.43;0.88;;;;;;;;;;5032731;28;20036;-48
2022/11/23 06:46:51;;;;;;;4.25;1.27;;;;;;;;;;5033103;28;20029;-48
2022/11/23 06:49:20;;;;;;;4.38;0.82;;;;;;;;;;5033318;28;20029;-48
2022/11/23 06:51:47;;;;;;;3.58;0.70;;;;;;;;;;5032847;28;20079;-50
2022/11/23 06:54:14;;;;;;;4.68;0.80;;;;;;;;;;5032956;28;20022;-50
2022/11/23 06:56:41;;;;;;;4.15;1.00;;;;;;;;;;5032866;28;20099;-49
2022/11/23 06:59:08;;;;;;;4.85;0.73;;;;;;;;;;5032851;28;20030;-47
2022/11/23 07:01:35;;;;;;;3.63;0.88;;;;;;;;;;5032913;28;20475;-49
2022/11/23 07:04:02;;;;;;;5.70;0.90;;;;;;;;;;5032745;28;20116;-49
2022/11/23 07:06:29;;;;;;;5.78;0.95;;;;;;;;;;5032771;28;20029;-48
2022/11/23 07:08:56;;;;;;;6.57;0.70;;;;;;;;;;5032453;28;20057;-51
2022/11/23 07:11:23;;;;;;;2.97;0.90;;;;;;;;;;5032753;28;20044;-50
2022/11/23 07:13:50;;;;;;;4.72;0.70;;;;;;;;;;5032596;28;20494;-50
2022/11/23 07:16:17;;;;;;;3.30;0.70;;;;;;;;;;5032671;28;20064;-53
2022/11/23 07:18:43;;;;;;;5.63;0.80;;;;;;;;;;5032600;28;20029;-50
2022/11/23 07:21:10;;;;;;;4.72;0.70;;;;;;;;;;5032665;28;20080;-49
2022/11/23 07:23:40;;;;;;;4.18;0.95;;;;;;;;;;5032523;28;20056;-51
2022/11/23 07:26:08;;;;;;;6.68;1.00;;;;;;;;;;5032469;28;20075;-49
2022/11/23 07:28:35;;;;;;;3.00;0.85;;;;;;;;;;5032594;28;20044;-55
2022/11/23 07:31:02;;;;;;;4.32;0.75;;;;;;;;;;5032582;28;20026;-54
2022/11/23 07:33:29;;;;;;;3.85;0.82;;;;;;;;;;5032452;28;20112;-53
2022/11/23 07:35:56;;;;;;;3.78;0.80;;;;;;;;;;5032516;28;20025;-55
2022/11/23 07:38:23;;;;;;;5.13;0.80;;;;;;;;;;5032390;28;20037;-54
2022/11/23 07:40:50;;;;;;;9.02;1.00;;;;;;;;;;5032517;28;20420;-53
2022/11/23 07:43:17;;;;;;;8.05;0.93;;;;;;;;;;5032337;28;20021;-56
2022/11/23 07:45:44;;;;;;;6.35;0.95;;;;;;;;;;5032433;28;20063;-53
2022/11/23 07:48:11;;;;;;;3.97;0.75;;;;;;;;;;5032377;28;20037;-54
2022/11/23 07:50:39;;;;;;;4.82;0.90;;;;;;;;;;5032391;28;20037;-52
2022/11/23 07:53:07;;;;;;;3.13;0.75;;;;;;;;;;5032242;28;20491;-54
2022/11/23 07:55:34;;;;;;;5.93;0.90;;;;;;;;;;5036151;28;20025;-51
2022/11/23 07:58:01;;;;;;;8.70;1.10;;;;;;;;;;5036139;28;20064;-50
2022/11/23 08:00:29;;;;;;;3.97;0.88;;;;;;;;;;5036125;28;20029;-55
2022/11/23 08:02:57;;;;;;;2.70;0.70;;;;;;;;;;5036048;28;20041;-54
2022/11/23 08:05:25;;;;;;;1.95;0.60;;;;;;;;;;5036265;28;20427;-53
2022/11/23 08:07:57;;;;;;;3.28;0.70;;;;;;;;;;5036065;28;20614;-55
2022/11/23 08:10:24;;;;;;;4.00;0.90;;;;;;;;;;5035873;28;20113;-56
2022/11/23 08:12:51;;;;;;;3.85;0.80;;;;;;;;;;5035801;28;20026;-56
2022/11/23 08:15:18;;;;;;;2.33;0.60;;;;;;;;;;5035879;28;20479;-56
2022/11/23 08:17:45;;;;;;;5.13;1.10;;;;;;;;;;5035814;28;20108;-55
2022/11/23 08:20:12;;;;;;;4.75;1.08;;;;;;;;;;5034442;28;20049;-56
2022/11/23 08:22:39;;;;;;;2.67;0.85;;;;;;;;;;5035768;28;20033;-55
2022/11/23 08:25:06;;;;;;;3.92;0.77;;;;;;;;;;5013401;28;20044;-56
2022/11/23 08:27:33;;;;;;;4.03;0.73;;;;;;;;;;4996239;28;20041;-55
2022/11/23 08:30:00;;;;;;;4.88;0.75;;;;;;;;;;4996280;28;20385;-56
2022/11/23 08:32:27;;;;;;;2.72;0.85;;;;;;;;;;4996504;28;20530;-53
2022/11/23 08:34:54;;;;;;;2.13;0.70;;;;;;;;;;4996086;28;20022;-56
2022/11/23 08:37:21;;;;;;;2.28;0.70;;;;;;;;;;4996025;28;20086;-55
2022/11/23 08:39:48;;;;;;;3.97;0.75;;;;;;;;;;4996108;28;20500;-53
2022/11/23 08:42:15;;;;;;;5.85;0.88;;;;;;;;;;4996103;28;20026;-55
2022/11/23 08:44:42;;;;;;;4.03;0.90;;;;;;;;;;4995930;28;20025;-54
2022/11/23 08:47:09;;;;;;;5.75;0.82;;;;;;;;;;4995958;28;20045;-57
2022/11/23 08:49:36;;;;;;;3.45;0.77;;;;;;;;;;4995875;28;20027;-51
2022/11/23 08:52:03;;;;;;;4.28;0.90;;;;;;;;;;4995855;28;20026;-53
2022/11/23 08:54:31;;;;;;;3.28;0.95;;;;;;;;;;4995703;28;20073;-51
2022/11/23 08:56:58;;;;;;;4.00;0.82;;;;;;;;;;4995715;28;20096;-51
2022/11/23 08:59:25;;;;;;;2.63;0.80;;;;;;;;;;4995753;28;20512;-52
2022/11/23 09:01:52;;;;;;;6.15;0.90;;;;;;;;;;4995699;28;20027;-52
2022/11/23 09:04:19;;;;;;;4.70;0.80;;;;;;;;;;4995485;28;20026;-49
2022/11/23 09:06:46;;;;;;;2.72;0.75;;;;;;;;;;4994459;28;20042;-49
2022/11/23 09:09:13;;;;;;;9.73;1.05;;;;;;;;;;4994025;28;20566;-51
2022/11/23 09:11:40;;;;;;;6.05;1.00;;;;;;;;;;4995502;28;20105;-52
2022/11/23 09:14:07;;;;;;;8.82;0.82;;;;;;;;;;4995250;28;20109;-52
2022/11/23 09:16:34;;;;;;;3.05;0.90;;;;;;;;;;4995322;28;20110;-54
2022/11/23 09:19:01;;;;;;;6.88;0.80;;;;;;;;;;4995343;28;20030;-49
2022/11/23 09:21:32;;;;;;;3.65;0.88;;;;;;;;;;4995372;28;20097;-48
2022/11/23 09:23:59;;;;;;;2.83;0.77;;;;;;;;;;4995186;28;20382;-50
2022/11/23 09:26:26;;;;;;;4.57;0.88;;;;;;;;;;4995139;28;20049;-50
2022/11/23 09:28:53;;;;;;;2.72;0.45;;;;;;;;;;4994314;28;20042;-55
2022/11/23 09:31:20;;;;;;;3.45;0.73;;;;;;;;;;4995051;28;20026;-47
2022/11/23 09:33:47;;;;;;;4.78;0.75;;;;;;;;;;4994894;28;20480;-52
2022/11/23 09:36:14;;;;;;;2.63;0.73;;;;;;;;;;4994839;28;20037;-49
2022/11/23 09:38:41;;;;;;;1.50;0.60;;;;;;;;;;4994904;28;20144;-53
2022/11/23 09:41:26;;;;;;;3.60;1.00;;;;;;;;;;4995008;28;20033;-50
2022/11/23 09:43:53;;;;;;;2.83;0.73;;;;;;;;;;4994783;28;20022;-49
2022/11/23 09:46:37;;;;;;;22.63;1.95;;;;;;;;;;4994806;28;20057;-50
2022/11/23 09:49:13;;;;;;;23.17;2.50;;;;;;;;;;5011014;28;20026;-47
2022/11/23 09:51:41;;;;;;;30.55;2.58;;;;;;;;;;5014354;28;20018;-49
2022/11/23 09:54:20;;;;;;;23.48;1.83;;;;;;;;;;5014106;28;20018;-49
2022/11/23 09:56:50;;;;;;;11.18;1.55;;;;;;;;;;5014154;28;20029;-51
2022/11/23 09:59:22;;;;;;;13.02;1.60;;;;;;;;;;5014053;28;20053;-47
2022/11/23 10:01:50;;;;;;;14.43;2.10;;;;;;;;;;5014031;28;20111;-49
2022/11/23 10:04:18;;;;;;;13.48;1.67;;;;;;;;;;5014042;28;20084;-51
2022/11/23 10:06:47;;;;;;;20.20;1.90;;;;;;;;;;5014103;28;20030;-48
2022/11/23 10:09:32;;;;;;;13.95;1.58;;;;;;;;;;5013786;28;20500;-48
2022/11/23 10:12:26;;;;;;;19.25;2.28;;;;;;;;;;5003025;28;20026;-51
2022/11/23 10:15:19;;;;;;;26.38;2.17;;;;;;;;;;4994017;28;20081;-50
2022/11/23 10:17:55;;;;;;;24.25;3.22;;;;;;;;;;4992655;28;20050;-50
2022/11/23 10:20:28;;;;;;;22.33;3.28;;;;;;;;;;4994177;28;20477;-53
2022/11/23 10:22:59;;;;;;;27.50;2.78;;;;;;;;;;4994225;28;20141;-49
2022/11/23 10:25:29;;;;;;;20.75;2.10;;;;;;;;;;5000608;28;20022;-53
2022/11/23 10:27:59;;;;;;;17.77;1.98;;;;;;;;;;5003476;28;20029;-50
2022/11/23 10:30:26;;;;;;;22.92;2.55;;;;;;;;;;5002867;28;20069;-49
2022/11/23 10:33:19;;;;;;;20.40;2.10;;;;;;;;;;5001260;28;20034;-48
2022/11/23 10:35:46;;;;;;;18.83;2.15;;;;;;;;;;4997163;28;20061;-54
2022/11/23 10:38:17;;;;;;;19.80;2.47;;;;;;;;;;4996250;28;20543;-49
2022/11/23 10:40:50;;;;;;;17.07;2.17;;;;;;;;;;4993778;28;20049;-48
2022/11/23 10:43:19;;;;;;;16.35;2.20;;;;;;;;;;4993653;28;20026;-51
2022/11/23 10:45:47;;;;;;;13.98;2.08;;;;;;;;;;4993756;28;20022;-51
2022/11/23 10:48:32;;;;;;;11.98;1.95;;;;;;;;;;4993669;28;20034;-51
2022/11/23 10:51:18;;;;;;;13.82;2.17;;;;;;;;;;4993742;28;20550;-51
2022/11/23 10:53:51;;;;;;;10.70;1.88;;;;;;;;;;4993588;28;20046;-49
2022/11/23 10:56:18;;;;;;;11.18;1.65;;;;;;;;;;4993537;28;20388;-52
2022/11/23 10:58:45;;;;;;;14.60;1.95;;;;;;;;;;4993587;28;20121;-49
2022/11/23 11:01:26;;;;;;;12.80;1.73;;;;;;;;;;4993487;28;20038;-49
2022/11/23 11:03:54;;;;;;;13.98;2.10;;;;;;;;;;4993457;28;20080;-57
2022/11/23 11:06:24;;;;;;;14.02;1.80;;;;;;;;;;4993540;28;20023;-55
2022/11/23 11:08:52;;;;;;;7.57;1.92;;;;;;;;;;4993303;28;20129;-50
2022/11/23 11:11:32;;;;;;;11.43;1.63;;;;;;;;;;4993371;28;20022;-51
2022/11/23 11:14:06;;;;;;;8.52;1.40;;;;;;;;;;4997419;28;20029;-48
2022/11/23 11:16:34;;;;;;;15.43;1.58;;;;;;;;;;5008838;28;20033;-53
2022/11/23 11:19:21;;;;;;;16.23;1.75;;;;;;;;;;5011737;28;20116;-51
2022/11/23 11:21:48;;;;;;;76.15;4.45;;;;;;;;;;5011291;28;20040;-53
2022/11/23 11:24:20;;;;;;;23.00;2.25;;;;;;;;;;5014664;28;20109;-56
2022/11/23 11:26:50;;;;;;;22.08;2.10;;;;;;;;;;5021518;28;20036;-56
2022/11/23 11:29:29;;;;;;;26.77;2.60;;;;;;;;;;5014540;28;20029;-59
2022/11/23 11:32:12;;;;;;;31.92;2.78;;;;;;;;;;5016828;28;20064;-56
2022/11/23 11:34:38;;;;;;;;;;;;;;;;;;5017193;28;20022;-56
2022/11/23 11:37:17;;;;;;;107.25;6.03;;;;;;;;;;5016784;28;20332;-56
2022/11/23 11:40:04;;;;;;;88.88;6.18;;;;;;;;;;5016756;28;20034;-53
2022/11/23 11:42:37;;;;;;;64.25;4.78;;;;;;;;;;5016533;28;20026;-56
2022/11/23 11:45:05;;;;;;;62.30;4.85;;;;;;;;;;5016722;28;20109;-54
2022/11/23 11:47:36;;;;;;;32.53;4.10;;;;;;;;;;5016618;28;20033;-54
2022/11/23 11:50:11;;;;;;;34.83;3.70;;;;;;;;;;5016654;28;20084;-53
2022/11/23 11:52:41;;;;;;;23.85;2.63;;;;;;;;;;5016452;28;20101;-55
2022/11/23 11:55:15;;;;;;;19.60;2.65;;;;;;;;;;5016440;28;20017;-53
2022/11/23 11:57:45;;;;;;;20.48;2.38;;;;;;;;;;5016385;28;20062;-54
2022/11/23 12:00:17;;;;;;;42.88;4.50;;;;;;;;;;5016371;28;20076;-50
2022/11/23 12:03:02;;;;;;;148.60;11.52;;;;;;;;;;5016302;28;20026;-53
2022/11/23 12:05:41;;;;;;;50.65;6.18;;;;;;;;;;5016226;28;20030;-54
2022/11/23 12:08:13;;;;;;;38.17;3.90;;;;;;;;;;5015941;28;20124;-53
2022/11/23 12:10:50;;;;;;;25.17;2.58;;;;;;;;;;5016258;28;20506;-53
2022/11/23 12:13:25;;;;;;;16.00;1.67;;;;;;;;;;5016083;28;20439;-55
2022/11/23 12:16:04;;;;;;;17.90;1.67;;;;;;;;;;5016144;28;20436;-53
2022/11/23 12:18:30;;;;;;;13.35;1.80;;;;;;;;;;5015972;28;20030;-55
2022/11/23 12:21:05;;;;;;;17.75;1.92;;;;;;;;;;5016002;28;20026;-51
2022/11/23 12:23:43;;;;;;;17.80;1.30;;;;;;;;;;5015856;28;20495;-53
2022/11/23 12:26:13;;;;;;;13.32;2.15;;;;;;;;;;5022489;28;20460;-56
2022/11/23 12:28:49;;;;;;;14.20;1.50;;;;;;;;;;5019322;28;20117;-55
2022/11/23 12:31:42;;;;;;;17.15;1.70;;;;;;;;;;5015454;28;20036;-50
2022/11/23 12:34:38;;;;;;;52.63;2.55;;;;;;;;;;5014435;28;20041;-57
2022/11/23 12:37:24;;;;;;;19.38;1.58;;;;;;;;;;4995946;28;20069;-57
2022/11/23 12:40:09;;;;;;;19.27;1.60;;;;;;;;;;5014015;28;20034;-56
2022/11/23 12:42:40;;;;;;;14.02;1.25;;;;;;;;;;5012438;28;20068;-59
2022/11/23 12:45:20;;;;;;;17.67;1.40;;;;;;;;;;5015267;28;20122;-59
2022/11/23 12:47:56;;;;;;;16.08;1.48;;;;;;;;;;5015274;28;20030;-56
2022/11/23 12:50:23;;;;;;;12.48;1.30;;;;;;;;;;5015376;28;20072;-56
2022/11/23 12:52:59;;;;;;;8.68;1.50;;;;;;;;;;5014421;28;20049;-54
2022/11/23 12:55:29;;;;;;;9.68;1.13;;;;;;;;;;5015223;28;20137;-56
2022/11/23 12:58:04;;;;;;;20.02;1.33;;;;;;;;;;5004493;28;20246;-50
2022/11/23 13:00:34;;;;;;;30.13;3.25;;;;;;;;;;5012331;28;20037;-52
2022/11/23 13:03:19;;;;;;;13.82;1.70;;;;;;;;;;5010827;28;20551;-59
2022/11/23 13:06:04;;;;;;;25.08;1.88;;;;;;;;;;5014465;28;20242;-59
2022/11/23 13:08:54;;;;;;;15.05;1.30;;;;;;;;;;5012940;28;20067;-50
2022/11/23 13:11:21;;;;;;;13.13;1.20;;;;;;;;;;5013996;28;20038;-52
2022/11/23 13:14:06;;;;;;;17.20;0.85;;;;;;;;;;5013127;28;20034;-52
2022/11/23 13:16:42;;;;;;;44.85;2.88;;;;;;;;;;5014063;28;20029;-55
2022/11/23 13:19:30;;;;;;;19.30;1.90;;;;;;;;;;5012838;28;20041;-48
2022/11/23 13:21:58;;;;;;;13.43;1.40;;;;;;;;;;5014267;28;20057;-50
2022/11/23 13:24:32;;;;;;;22.13;1.98;;;;;;;;;;5013049;28;20061;-48
2022/11/23 13:27:14;;;;;;;18.95;1.50;;;;;;;;;;5013126;28;20065;-55
2022/11/23 13:29:47;;;;;;;15.70;1.50;;;;;;;;;;5013114;28;20062;-56
2022/11/23 13:32:32;;;;;;;9.27;1.00;;;;;;;;;;5013389;28;20034;-55
2022/11/23 13:34:59;;;;;;;12.13;1.00;;;;;;;;;;5011984;28;20057;-53
2022/11/23 13:37:26;;;;;;;11.05;1.38;;;;;;;;;;5013987;28;20064;-52
2022/11/23 13:40:02;;;;;;;11.50;1.33;;;;;;;;;;5013491;28;20109;-57
2022/11/23 13:42:31;;;;;;;11.10;1.30;;;;;;;;;;5013611;28;20030;-56
2022/11/23 13:45:35;;;;;;;11.27;1.20;;;;;;;;;;5013649;28;20022;-51
2022/11/23 13:48:06;;;;;;;10.95;1.38;;;;;;;;;;5011185;28;20073;-54
2022/11/23 13:50:33;;;;;;;15.90;1.45;;;;;;;;;;5009147;28;20423;-53
2022/11/23 13:53:01;;;;;;;10.27;1.23;;;;;;;;;;5012301;28;20117;-53
2022/11/23 13:55:34;;;;;;;16.40;1.38;;;;;;;;;;5013237;28;20480;-55
2022/11/23 13:58:27;;;;;;;15.95;1.52;;;;;;;;;;5013205;28;20034;-52
2022/11/23 14:00:53;;;;;;;;;;;;;;;;;;5013003;28;20534;-55
2022/11/23 14:03:38;;;;;;;21.42;2.05;;;;;;;;;;5013019;28;20386;-54
2022/11/23 14:06:10;;;;;;;14.55;2.08;;;;;;;;;;5010429;28;20026;-47
2022/11/23 14:08:39;;;;;;;21.98;2.28;;;;;;;;;;5010053;28;20517;-55
2022/11/23 14:11:12;;;;;;;34.17;2.67;;;;;;;;;;5012458;28;20503;-55
2022/11/23 14:13:40;;;;;;;12.85;1.60;;;;;;;;;;5012521;28;20395;-48
2022/11/23 14:16:11;;;;;;;8.88;1.10;;;;;;;;;;5012007;28;20045;-53
2022/11/23 14:18:41;;;;;;;10.65;1.33;;;;;;;;;;4998754;28;20384;-53
2022/11/23 14:21:08;;;;;;;19.30;1.70;;;;;;;;;;4989913;28;20026;-61
2022/11/23 14:23:53;;;;;;;25.63;2.25;;;;;;;;;;5006993;28;20034;-53
2022/11/23 14:26:26;;;;;;;14.68;2.13;;;;;;;;;;5011447;28;20514;-59
2022/11/23 14:29:12;;;;;;;20.25;2.05;;;;;;;;;;5011462;28;20041;-51
2022/11/23 14:31:57;;;;;;;16.70;1.90;;;;;;;;;;5011166;28;20041;-53
2022/11/23 14:34:33;;;;;;;18.88;2.05;;;;;;;;;;5008748;28;20607;-53
2022/11/23 14:37:08;;;;;;;16.08;2.05;;;;;;;;;;5011966;28;20045;-56
2022/11/23 14:39:53;;;;;;;23.05;2.20;;;;;;;;;;5011578;28;20049;-56
2022/11/23 14:42:23;;;;;;;20.33;2.00;;;;;;;;;;5009622;28;20029;-56
2022/11/23 14:44:50;;;;;;;24.85;2.15;;;;;;;;;;5010205;28;20129;-56
2022/11/23 14:47:25;;;;;;;20.98;1.90;;;;;;;;;;5011742;28;20087;-53
2022/11/23 14:49:53;;;;;;;19.60;2.05;;;;;;;;;;5009034;28;20116;-60
2022/11/23 14:52:22;;;;;;;22.80;1.80;;;;;;;;;;5011730;28;20029;-60
2022/11/23 14:54:53;;;;;;;12.98;1.60;;;;;;;;;;5009435;28;20033;-56